Time;durP1;ratioP1;P1;durP2;ratioP2;P2;SDS_P1;SDS_P2;PMS_P1;PMS_P2;Temp;Humidity;BMP_temperature;BMP_pressure;BME280_temperature;BME280_humidity;BME280_pressure;Samples;Min_cycle;Max_cycle;Signal;HPM_P1;HPM_P2
2021/12/01 00:00:53;;;;;;;;;;;;;;;;;;5019992;28;19919;-84
2021/12/01 00:03:19;;;;;;;;;;;;;;;;;;5008372;28;20338;-81
2021/12/01 00:05:44;;;;;;;;;;;;;;;;;;5007593;28;19917;-79
2021/12/01 00:08:10;;;;;;;;;;;;;;;;;;5011209;28;19949;-78
2021/12/01 00:10:36;;;;;;;;;;;;;;;;;;5009381;28;19960;-82
2021/12/01 00:13:02;;;;;;;;;;;;;;;;;;5017760;28;19913;-81
2021/12/01 00:15:28;;;;;;;;;;;;;;;;;;5028370;28;19917;-83
2021/12/01 00:17:54;;;;;;;;;;;;;;;;;;5021386;28;20428;-78
2021/12/01 00:20:20;;;;;;;;;;;;;;;;;;5013156;28;20229;-77
2021/12/01 00:22:46;;;;;;;;;;;;;;;;;;5008161;28;19960;-87
2021/12/01 00:25:12;;;;;;;;;;;;;;;;;;5008248;28;19961;-79
2021/12/01 00:27:38;;;;;;;;;;;;;;;;;;5007351;28;19921;-78
2021/12/01 00:30:04;;;;;;;;;;;;;;;;;;5008092;28;20266;-79
2021/12/01 00:32:30;;;;;;;;;;;;;;;;;;5007562;28;19917;-81
2021/12/01 00:34:59;;;;;;;;;;;;;;;;;;5010225;28;19913;-83
2021/12/01 00:37:24;;;;;;;;;;;;;;;;;;5007744;28;20194;-80
2021/12/01 00:39:50;;;;;;;;;;;;;;;;;;5007858;28;20325;-81
2021/12/01 00:42:18;;;;;;;;;;;;;;;;;;5007682;28;19925;-80
2021/12/01 00:44:55;;;;;;;;;;;;;;;;;;5015376;28;19913;-81
2021/12/01 00:47:23;;;;;;;;;;;;;;;;;;5009581;28;20369;-84
2021/12/01 00:49:49;;;;;;;;;;;;;;;;;;5008752;28;20288;-82
2021/12/01 00:52:15;;;;;;;;;;;;;;;;;;5021615;28;20377;-84
2021/12/01 00:54:40;;;;;;;;;;;;;;;;;;5025217;28;19913;-79
2021/12/01 00:57:06;;;;;;;;;;;;;;;;;;5021796;28;19921;-86
2021/12/01 00:59:34;;;;;;;;;;;;;;;;;;5016946;28;19922;-82
2021/12/01 01:02:00;;;;;;;;;;;;;;;;;;5007961;28;19921;-82
2021/12/01 01:04:25;;;;;;;;;;;;;;;;;;5022819;28;19919;-81
2021/12/01 01:06:51;;;;;;;;;;;;;;;;;;5007643;28;20127;-83
2021/12/01 01:09:17;;;;;;;;;;;;;;;;;;5011192;28;19925;-83
2021/12/01 01:17:19;;;;;;;;;;;;;;;;;;5008040;28;20256;-85
2021/12/01 01:19:45;;;;;;;;;;;;;;;;;;5018316;28;19913;-80
2021/12/01 01:22:11;;;;;;;;;;;;;;;;;;4989866;28;20169;-81
2021/12/01 01:24:36;;;;;;;;;;;;;;;;;;5001318;28;20420;-81
2021/12/01 01:27:02;;;;;;;;;;;;;;;;;;5023401;28;20008;-80
2021/12/01 01:29:33;;;;;;;;;;;;;;;;;;5021507;28;19917;-84
2021/12/01 01:31:59;;;;;;;;;;;;;;;;;;5015466;28;19984;-83
2021/12/01 01:34:25;;;;;;;;;;;;;;;;;;4989442;28;19961;-85
2021/12/01 01:36:51;;;;;;;;;;;;;;;;;;4989748;28;20222;-83
2021/12/01 01:39:17;;;;;;;;;;;;;;;;;;4987921;28;19913;-87
2021/12/01 01:41:43;;;;;;;;;;;;;;;;;;4991812;28;19909;-84
2021/12/01 01:44:09;;;;;;;;;;;;;;;;;;5001384;28;19961;-83
2021/12/01 01:46:34;;;;;;;;;;;;;;;;;;5002277;28;19924;-81
2021/12/01 01:49:10;;;;;;;;;;;;;;;;;;4985219;28;19944;-83
2021/12/01 01:51:36;;;;;;;;;;;;;;;;;;5001487;28;20374;-85
2021/12/01 01:54:02;;;;;;;;;;;;;;;;;;4986854;28;19996;-82
2021/12/01 01:56:28;;;;;;;;;;;;;;;;;;4989276;28;19949;-78
2021/12/01 01:58:54;;;;;;;;;;;;;;;;;;4993211;28;19925;-85
2021/12/01 02:03:55;;;;;;;;;;;;;;;;;;4989928;28;20366;-85
2021/12/01 02:06:25;;;;;;;;;;;;;;;;;;4996236;28;19922;-83
2021/12/01 02:08:52;;;;;;;;;;;;;;;;;;4999201;28;19928;-82
2021/12/01 02:11:18;;;;;;;;;;;;;;;;;;5025934;28;19920;-80
2021/12/01 02:13:47;;;;;;;;;;;;;;;;;;5025848;28;20297;-83
2021/12/01 02:16:13;;;;;;;;;;;;;;;;;;5012345;28;19941;-79
2021/12/01 02:18:39;;;;;;;;;;;;;;;;;;5019033;28;19963;-81
2021/12/01 02:21:05;;;;;;;;;;;;;;;;;;5021301;28;19949;-81
2021/12/01 02:23:31;;;;;;;;;;;;;;;;;;5023679;28;19913;-84
2021/12/01 02:25:57;;;;;;;;;;;;;;;;;;5009513;28;20289;-82
2021/12/01 02:28:23;;;;;;;;;;;;;;;;;;5017621;28;19920;-80
2021/12/01 02:30:49;;;;;;;;;;;;;;;;;;5009342;28;19913;-84
2021/12/01 02:33:15;;;;;;;;;;;;;;;;;;5015735;28;19961;-84
2021/12/01 02:35:40;;;;;;;;;;;;;;;;;;5010261;28;20343;-84
2021/12/01 02:38:06;;;;;;;;;;;;;;;;;;5024477;28;19916;-84
2021/12/01 02:40:32;;;;;;;;;;;;;;;;;;5007939;28;20059;-84
2021/12/01 02:42:58;;;;;;;;;;;;;;;;;;5007436;28;20292;-80
2021/12/01 02:45:24;;;;;;;;;;;;;;;;;;5001998;28;19948;-80
2021/12/01 02:47:50;;;;;;;;;;;;;;;;;;5026513;28;19970;-83
2021/12/01 02:50:17;;;;;;;;;;;;;;;;;;5018157;28;20688;-81
2021/12/01 02:52:43;;;;;;;;;;;;;;;;;;5009121;28;20280;-86
2021/12/01 02:55:10;;;;;;;;;;;;;;;;;;5028515;28;19935;-84
2021/12/01 02:57:36;;;;;;;;;;;;;;;;;;5026775;28;20612;-81
2021/12/01 03:00:01;;;;;;;;;;;;;;;;;;5011083;28;19913;-87
2021/12/01 03:02:27;;;;;;;;;;;;;;;;;;4999890;28;19913;-84
2021/12/01 03:04:53;;;;;;;;;;;;;;;;;;5010446;28;19925;-82
2021/12/01 03:07:19;;;;;;;;;;;;;;;;;;4998431;28;19913;-87
2021/12/01 03:09:45;;;;;;;;;;;;;;;;;;5005796;28;19920;-84
2021/12/01 03:12:11;;;;;;;;;;;;;;;;;;5021388;28;19944;-81
2021/12/01 03:14:37;;;;;;;;;;;;;;;;;;5016108;28;19913;-86
2021/12/01 03:17:03;;;;;;;;;;;;;;;;;;5013881;28;20219;-84
2021/12/01 03:19:29;;;;;;;;;;;;;;;;;;5016619;28;19968;-80
2021/12/01 03:21:55;;;;;;;;;;;;;;;;;;5018021;28;19913;-83
2021/12/01 03:24:21;;;;;;;;;;;;;;;;;;5015135;28;19969;-85
2021/12/01 03:26:47;;;;;;;;;;;;;;;;;;5010080;28;19991;-83
2021/12/01 03:29:14;;;;;;;;;;;;;;;;;;5015746;28;19913;-85
2021/12/01 03:31:40;;;;;;;;;;;;;;;;;;5015967;28;20422;-84
2021/12/01 03:34:06;;;;;;;;;;;;;;;;;;5009265;28;19924;-80
2021/12/01 03:36:32;;;;;;;;;;;;;;;;;;5011916;28;19913;-84
2021/12/01 03:38:58;;;;;;;;;;;;;;;;;;5026813;28;19909;-87
2021/12/01 03:41:23;;;;;;;;;;;;;;;;;;5027441;28;19924;-83
2021/12/01 03:43:49;;;;;;;;;;;;;;;;;;5015785;28;19913;-82
2021/12/01 03:46:16;;;;;;;;;;;;;;;;;;5012627;28;19917;-83
2021/12/01 03:48:42;;;;;;;;;;;;;;;;;;5019905;28;19913;-86
2021/12/01 03:51:09;;;;;;;;;;;;;;;;;;5012727;28;19914;-86
2021/12/01 03:53:35;;;;;;;;;;;;;;;;;;5011969;28;19975;-81
2021/12/01 03:56:01;;;;;;;;;;;;;;;;;;5008756;28;19917;-83
2021/12/01 03:58:26;;;;;;;;;;;;;;;;;;5014840;28;19913;-82
2021/12/01 04:00:52;;;;;;;;;;;;;;;;;;5013717;28;20485;-87
2021/12/01 04:03:18;;;;;;;;;;;;;;;;;;5019343;28;19913;-83
2021/12/01 04:05:45;;;;;;;;;;;;;;;;;;5022421;28;21401;-84
2021/12/01 04:08:11;;;;;;;;;;;;;;;;;;5017332;28;19932;-82
2021/12/01 04:10:37;;;;;;;;;;;;;;;;;;5025731;28;19914;-84
2021/12/01 04:13:03;;;;;;;;;;;;;;;;;;5008817;28;20322;-87
2021/12/01 04:15:29;;;;;;;;;;;;;;;;;;5007672;28;19933;-80
2021/12/01 04:17:55;;;;;;;;;;;;;;;;;;5022401;28;19956;-81
2021/12/01 04:20:21;;;;;;;;;;;;;;;;;;5026391;28;20629;-84
2021/12/01 04:22:47;;;;;;;;;;;;;;;;;;5012602;28;20016;-81
2021/12/01 04:25:13;;;;;;;;;;;;;;;;;;5004905;28;19924;-82
2021/12/01 04:27:39;;;;;;;;;;;;;;;;;;5008491;28;20353;-85
2021/12/01 04:30:06;;;;;;;;;;;;;;;;;;5024143;28;20454;-80
2021/12/01 04:32:32;;;;;;;;;;;;;;;;;;4995871;28;20381;-85
2021/12/01 04:34:59;;;;;;;;;;;;;;;;;;4990511;28;19913;-83
2021/12/01 04:37:25;;;;;;;;;;;;;;;;;;5020562;28;19918;-85
2021/12/01 04:39:51;;;;;;;;;;;;;;;;;;4990818;28;19956;-84
2021/12/01 04:42:17;;;;;;;;;;;;;;;;;;5007155;28;19955;-85
2021/12/01 04:44:43;;;;;;;;;;;;;;;;;;5026829;28;19970;-82
2021/12/01 04:47:13;;;;;;;;;;;;;;;;;;4997313;28;19957;-81
2021/12/01 04:49:39;;;;;;;;;;;;;;;;;;4977852;28;20049;-81
2021/12/01 04:52:05;;;;;;;;;;;;;;;;;;4986935;28;19914;-83
2021/12/01 04:54:35;;;;;;;;;;;;;;;;;;4988599;28;19927;-83
2021/12/01 04:57:01;;;;;;;;;;;;;;;;;;4979376;28;19918;-83
2021/12/01 04:59:27;;;;;;;;;;;;;;;;;;4982734;28;19944;-84
2021/12/01 05:01:55;;;;;;;;;;;;;;;;;;4984188;28;19952;-82
2021/12/01 05:04:21;;;;;;;;;;;;;;;;;;4986103;28;20238;-85
2021/12/01 05:06:46;;;;;;;;;;;;;;;;;;4998712;28;20119;-83
2021/12/01 05:09:12;;;;;;;;;;;;;;;;;;4985727;28;19921;-83
2021/12/01 05:11:38;;;;;;;;;;;;;;;;;;4988409;28;19910;-82
2021/12/01 05:14:04;;;;;;;;;;;;;;;;;;4985693;28;19914;-83
2021/12/01 05:16:30;;;;;;;;;;;;;;;;;;4984373;28;20017;-84
2021/12/01 05:18:56;;;;;;;;;;;;;;;;;;5004791;28;19913;-86
2021/12/01 05:21:22;;;;;;;;;;;;;;;;;;5022926;28;19909;-81
2021/12/01 05:23:48;;;;;;;;;;;;;;;;;;5009679;28;19920;-81
2021/12/01 05:26:13;;;;;;;;;;;;;;;;;;5017558;28;19959;-86
2021/12/01 05:28:39;;;;;;;;;;;;;;;;;;5015671;28;19920;-81
2021/12/01 05:31:05;;;;;;;;;;;;;;;;;;5016273;28;19921;-85
2021/12/01 05:33:31;;;;;;;;;;;;;;;;;;5007250;28;19914;-83
2021/12/01 05:35:57;;;;;;;;;;;;;;;;;;5012665;28;19939;-84
2021/12/01 05:38:23;;;;;;;;;;;;;;;;;;5017660;28;19917;-83
2021/12/01 05:40:50;;;;;;;;;;;;;;;;;;5009030;28;20425;-81
2021/12/01 05:43:16;;;;;;;;;;;;;;;;;;5009694;28;20365;-83
2021/12/01 05:45:42;;;;;;;;;;;;;;;;;;5007197;28;19914;-84
2021/12/01 05:48:08;;;;;;;;;;;;;;;;;;5015807;28;20008;-87
2021/12/01 05:50:34;;;;;;;;;;;;;;;;;;5009314;28;20009;-82
2021/12/01 05:53:00;;;;;;;;;;;;;;;;;;5017755;28;19922;-86
2021/12/01 05:55:26;;;;;;;;;;;;;;;;;;5009449;28;20363;-82
2021/12/01 05:57:52;;;;;;;;;;;;;;;;;;5008790;28;19917;-82
2021/12/01 06:00:19;;;;;;;;;;;;;;;;;;5009470;28;19918;-85
2021/12/01 06:02:49;;;;;;;;;;;;;;;;;;5010224;28;19924;-84
2021/12/01 06:05:15;;;;;;;;;;;;;;;;;;5014153;28;20321;-83
2021/12/01 06:07:41;;;;;;;;;;;;;;;;;;5009141;28;19925;-85
2021/12/01 06:10:07;;;;;;;;;;;;;;;;;;5018049;28;20326;-81
2021/12/01 06:12:33;;;;;;;;;;;;;;;;;;5008453;28;19965;-87
2021/12/01 06:14:59;;;;;;;;;;;;;;;;;;5016736;28;20229;-80
2021/12/01 06:17:27;;;;;;;;;;;;;;;;;;5012916;28;19959;-84
2021/12/01 06:19:53;;;;;;;;;;;;;;;;;;5016439;28;20020;-85
2021/12/01 06:22:19;;;;;;;;;;;;;;;;;;5014377;28;20020;-79
2021/12/01 06:24:45;;;;;;;;;;;;;;;;;;5027766;28;19913;-82
2021/12/01 06:27:11;;;;;;;;;;;;;;;;;;5011686;28;19941;-84
2021/12/01 06:29:37;;;;;;;;;;;;;;;;;;5020436;28;19913;-86
2021/12/01 06:32:03;;;;;;;;;;;;;;;;;;5021727;28;20025;-81
2021/12/01 06:34:29;;;;;;;;;;;;;;;;;;5015546;28;19917;-80
2021/12/01 06:36:54;;;;;;;;;;;;;;;;;;5018771;28;20012;-81
2021/12/01 06:39:20;;;;;;;;;;;;;;;;;;5017677;28;19921;-85
2021/12/01 06:41:46;;;;;;;;;;;;;;;;;;5011786;28;19921;-80
2021/12/01 06:44:12;;;;;;;;;;;;;;;;;;5026674;28;19928;-85
2021/12/01 06:46:38;;;;;;;;;;;;;;;;;;5011507;28;20012;-85
2021/12/01 06:49:04;;;;;;;;;;;;;;;;;;5021002;28;19937;-82
2021/12/01 06:51:30;;;;;;;;;;;;;;;;;;5017463;28;20416;-82
2021/12/01 06:53:56;;;;;;;;;;;;;;;;;;5024299;28;19952;-83
2021/12/01 06:56:23;;;;;;;;;;;;;;;;;;5019367;28;20457;-83
2021/12/01 06:58:49;;;;;;;;;;;;;;;;;;5022139;28;19914;-83
2021/12/01 07:01:14;;;;;;;;;;;;;;;;;;5014258;28;20218;-80
2021/12/01 07:03:40;;;;;;;;;;;;;;;;;;5022181;28;19917;-84
2021/12/01 07:06:06;;;;;;;;;;;;;;;;;;5024183;28;19921;-80
2021/12/01 07:08:32;;;;;;;;;;;;;;;;;;5022057;28;20336;-81
2021/12/01 07:10:59;;;;;;;;;;;;;;;;;;5022771;28;19913;-84
2021/12/01 07:13:25;;;;;;;;;;;;;;;;;;5023351;28;20008;-81
2021/12/01 07:15:51;;;;;;;;;;;;;;;;;;5016871;28;19921;-83
2021/12/01 07:18:16;;;;;;;;;;;;;;;;;;5011568;28;19964;-82
2021/12/01 07:20:45;;;;;;;;;;;;;;;;;;5010187;28;19913;-83
2021/12/01 07:23:11;;;;;;;;;;;;;;;;;;5017273;28;20012;-82
2021/12/01 07:25:37;;;;;;;;;;;;;;;;;;5014435;28;20008;-87
2021/12/01 07:28:03;;;;;;;;;;;;;;;;;;5015032;28;19925;-84
2021/12/01 07:30:29;;;;;;;;;;;;;;;;;;5012848;28;20382;-85
2021/12/01 07:32:54;;;;;;;;;;;;;;;;;;5014606;28;19929;-80
2021/12/01 07:35:22;;;;;;;;;;;;;;;;;;5023096;28;19921;-84
2021/12/01 07:37:49;;;;;;;;;;;;;;;;;;5021850;28;19929;-85
2021/12/01 07:40:15;;;;;;;;;;;;;;;;;;5023156;28;20007;-84
2021/12/01 07:42:41;;;;;;;;;;;;;;;;;;5016399;28;20009;-80
2021/12/01 07:45:07;;;;;;;;;;;;;;;;;;5010913;28;19924;-86
2021/12/01 07:47:33;;;;;;;;;;;;;;;;;;5011864;28;20024;-85
2021/12/01 07:49:59;;;;;;;;;;;;;;;;;;5016740;28;19919;-80
2021/12/01 07:52:25;;;;;;;;;;;;;;;;;;5014163;28;20012;-81
2021/12/01 07:54:51;;;;;;;;;;;;;;;;;;5017224;28;20366;-82
2021/12/01 07:57:16;;;;;;;;;;;;;;;;;;5019624;28;19917;-86
2021/12/01 07:59:42;;;;;;;;;;;;;;;;;;5024454;28;19914;-82
2021/12/01 08:02:08;;;;;;;;;;;;;;;;;;5015275;28;19990;-86
2021/12/01 08:04:34;;;;;;;;;;;;;;;;;;5015952;28;19914;-87
2021/12/01 08:07:00;;;;;;;;;;;;;;;;;;5016770;28;19928;-86
2021/12/01 08:09:26;;;;;;;;;;;;;;;;;;5017478;28;19921;-88
2021/12/01 08:11:52;;;;;;;;;;;;;;;;;;5012832;28;19917;-82
2021/12/01 08:14:18;;;;;;;;;;;;;;;;;;5027395;28;20007;-82
2021/12/01 08:16:45;;;;;;;;;;;;;;;;;;5017728;28;20151;-84
2021/12/01 08:19:10;;;;;;;;;;;;;;;;;;5023886;28;19963;-86
2021/12/01 08:21:36;;;;;;;;;;;;;;;;;;5031045;28;19956;-82
2021/12/01 08:24:04;;;;;;;;;;;;;;;;;;5028906;28;20477;-84
2021/12/01 08:26:48;;;;;;;;;;;;;;;;;;5023879;28;20633;-86
2021/12/01 08:29:14;;;;;;;;;;;;;;;;;;5033124;28;19909;-83
2021/12/01 08:31:40;;;;;;;;;;;;;;;;;;5028373;28;20015;-84
2021/12/01 08:34:06;;;;;;;;;;;;;;;;;;5032887;28;20003;-83
2021/12/01 08:36:31;;;;;;;;;;;;;;;;;;5033294;28;19909;-86
2021/12/01 08:38:59;;;;;;;;;;;;;;;;;;5042974;28;19915;-86
2021/12/01 08:41:24;;;;;;;;;;;;;;;;;;5032214;28;19909;-82
2021/12/01 08:43:50;;;;;;;;;;;;;;;;;;5020109;28;20016;-84
2021/12/01 08:46:16;;;;;;;;;;;;;;;;;;5012630;28;20417;-85
2021/12/01 08:48:42;;;;;;;;;;;;;;;;;;5020432;28;19917;-85
2021/12/01 08:51:08;;;;;;;;;;;;;;;;;;5012731;28;19909;-84
2021/12/01 08:53:34;;;;;;;;;;;;;;;;;;5027084;28;19913;-79
2021/12/01 08:56:00;;;;;;;;;;;;;;;;;;5025618;28;20007;-82
2021/12/01 08:58:26;;;;;;;;;;;;;;;;;;5014082;28;19913;-84
2021/12/01 09:00:58;;;;;;;;;;;;;;;;;;5019028;28;20012;-82
2021/12/01 09:03:24;;;;;;;;;;;;;;;;;;5026413;28;19909;-83
2021/12/01 09:05:50;;;;;;;;;;;;;;;;;;5021669;28;20378;-85
2021/12/01 09:08:15;;;;;;;;;;;;;;;;;;5020465;28;19921;-81
2021/12/01 09:10:41;;;;;;;;;;;;;;;;;;5015626;28;19956;-79
2021/12/01 09:13:07;;;;;;;;;;;;;;;;;;5021371;28;20376;-86
2021/12/01 09:15:33;;;;;;;;;;;;;;;;;;5013731;28;19914;-85
2021/12/01 09:20:44;;;;;;;;;;;;;;;;;;5017396;28;20589;-82
2021/12/01 09:23:10;;;;;;;;;;;;;;;;;;5018087;28;19944;-85
2021/12/01 09:25:36;;;;;;;;;;;;;;;;;;5028701;28;19914;-87
2021/12/01 09:28:02;;;;;;;;;;;;;;;;;;5014161;28;19964;-84
2021/12/01 09:30:28;;;;;;;;;;;;;;;;;;5025545;28;19918;-83
2021/12/01 09:32:54;;;;;;;;;;;;;;;;;;5035695;28;20488;-87
2021/12/01 09:35:20;;;;;;;;;;;;;;;;;;5032369;28;19917;-81
2021/12/01 09:37:46;;;;;;;;;;;;;;;;;;5038328;28;20526;-90
2021/12/01 09:40:13;;;;;;;;;;;;;;;;;;5040762;28;19916;-86
2021/12/01 09:42:40;;;;;;;;;;;;;;;;;;5045988;28;20454;-85
2021/12/01 09:45:06;;;;;;;;;;;;;;;;;;5038618;28;19909;-83
2021/12/01 09:47:32;;;;;;;;;;;;;;;;;;5034699;28;19913;-84
2021/12/01 09:49:58;;;;;;;;;;;;;;;;;;5026085;28;19909;-82
2021/12/01 09:52:24;;;;;;;;;;;;;;;;;;5034935;28;19909;-89
2021/12/01 09:54:50;;;;;;;;;;;;;;;;;;5032440;28;19909;-83
2021/12/01 09:57:16;;;;;;;;;;;;;;;;;;5035782;28;19920;-87
2021/12/01 09:59:48;;;;;;;;;;;;;;;;;;5020426;28;19913;-83
2021/12/01 10:02:14;;;;;;;;;;;;;;;;;;5021270;28;20189;-84
2021/12/01 10:04:40;;;;;;;;;;;;;;;;;;5032284;28;20401;-86
2021/12/01 10:07:05;;;;;;;;;;;;;;;;;;5032761;28;19917;-85
2021/12/01 10:09:31;;;;;;;;;;;;;;;;;;5025306;28;20001;-84
2021/12/01 10:11:57;;;;;;;;;;;;;;;;;;5023329;28;20008;-88
2021/12/01 10:14:23;;;;;;;;;;;;;;;;;;5032778;28;19923;-87
2021/12/01 10:16:49;;;;;;;;;;;;;;;;;;5034469;28;20266;-85
2021/12/01 10:19:16;;;;;;;;;;;;;;;;;;5037896;28;19917;-84
2021/12/01 10:21:42;;;;;;;;;;;;;;;;;;5022794;28;19913;-85
2021/12/01 10:24:08;;;;;;;;;;;;;;;;;;5038869;28;19917;-83
2021/12/01 10:26:34;;;;;;;;;;;;;;;;;;5037023;28;20572;-87
2021/12/01 10:29:01;;;;;;;;;;;;;;;;;;5020724;28;19914;-81
2021/12/01 10:31:27;;;;;;;;;;;;;;;;;;5026290;28;19939;-85
2021/12/01 10:33:53;;;;;;;;;;;;;;;;;;5026486;28;20052;-84
2021/12/01 10:36:18;;;;;;;;;;;;;;;;;;5018452;28;19913;-83
2021/12/01 10:41:29;;;;;;;;;;;;;;;;;;5040641;28;20389;-85
2021/12/01 10:43:55;;;;;;;;;;;;;;;;;;5032462;28;19909;-85
2021/12/01 10:46:21;;;;;;;;;;;;;;;;;;5024380;28;19921;-82
2021/12/01 10:48:46;;;;;;;;;;;;;;;;;;5034484;28;19917;-88
2021/12/01 10:51:13;;;;;;;;;;;;;;;;;;5029530;28;19982;-81
2021/12/01 10:53:39;;;;;;;;;;;;;;;;;;5036704;28;19909;-85
2021/12/01 10:56:05;;;;;;;;;;;;;;;;;;5043187;28;19910;-83
2021/12/01 10:58:31;;;;;;;;;;;;;;;;;;5029184;28;19919;-81
2021/12/01 11:01:01;;;;;;;;;;;;;;;;;;5026977;28;19952;-85
2021/12/01 11:03:29;;;;;;;;;;;;;;;;;;5028010;28;20468;-82
2021/12/01 11:05:55;;;;;;;;;;;;;;;;;;5024717;28;19925;-85
2021/12/01 11:08:21;;;;;;;;;;;;;;;;;;5029397;28;19921;-82
2021/12/01 11:10:47;;;;;;;;;;;;;;;;;;5037305;28;19948;-84
2021/12/01 11:13:31;;;;;;;;;;;;;;;;;;5027603;28;19993;-82
2021/12/01 11:15:57;;;;;;;;;;;;;;;;;;5030520;28;19916;-86
2021/12/01 11:18:23;;;;;;;;;;;;;;;;;;5025598;28;19913;-79
2021/12/01 11:20:49;;;;;;;;;;;;;;;;;;5037277;28;19913;-79
2021/12/01 11:23:15;;;;;;;;;;;;;;;;;;5039461;28;20273;-80
2021/12/01 11:25:41;;;;;;;;;;;;;;;;;;5035544;28;19917;-83
2021/12/01 11:28:08;;;;;;;;;;;;;;;;;;5041528;28;20529;-85
2021/12/01 11:30:34;;;;;;;;;;;;;;;;;;5033422;28;20421;-85
2021/12/01 11:33:00;;;;;;;;;;;;;;;;;;5030202;28;19920;-81
2021/12/01 11:35:26;;;;;;;;;;;;;;;;;;5039758;28;20320;-81
2021/12/01 11:37:55;;;;;;;;;;;;;;;;;;5037366;28;21612;-84
2021/12/01 11:40:21;;;;;;;;;;;;;;;;;;5038098;28;19955;-83
2021/12/01 11:42:47;;;;;;;;;;;;;;;;;;5047299;28;19917;-82
2021/12/01 11:45:13;;;;;;;;;;;;;;;;;;5040094;28;20008;-80
2021/12/01 11:47:41;;;;;;;;;;;;;;;;;;5043463;28;19913;-85
2021/12/01 11:50:11;;;;;;;;;;;;;;;;;;5045179;28;19915;-79
2021/12/01 11:52:37;;;;;;;;;;;;;;;;;;5043208;28;19909;-84
2021/12/01 11:55:03;;;;;;;;;;;;;;;;;;5050539;28;20153;-80
2021/12/01 11:57:28;;;;;;;;;;;;;;;;;;5042478;28;19915;-83
2021/12/01 11:59:55;;;;;;;;;;;;;;;;;;5044755;28;19909;-82
2021/12/01 12:02:21;;;;;;;;;;;;;;;;;;5035798;28;19913;-79
2021/12/01 12:04:46;;;;;;;;;;;;;;;;;;5047523;28;19955;-82
2021/12/01 12:07:12;;;;;;;;;;;;;;;;;;5032618;28;19917;-78
2021/12/01 12:09:38;;;;;;;;;;;;;;;;;;5035542;28;19932;-85
2021/12/01 12:12:04;;;;;;;;;;;;;;;;;;5027692;28;20002;-84
2021/12/01 12:14:30;;;;;;;;;;;;;;;;;;5036512;28;20365;-78
2021/12/01 12:16:56;;;;;;;;;;;;;;;;;;5035620;28;19912;-80
2021/12/01 12:19:22;;;;;;;;;;;;;;;;;;5033627;28;19961;-77
2021/12/01 12:21:52;;;;;;;;;;;;;;;;;;5034251;28;19917;-82
2021/12/01 12:24:24;;;;;;;;;;;;;;;;;;5044206;28;19923;-80
2021/12/01 12:26:57;;;;;;;;;;;;;;;;;;5045344;28;19991;-78
2021/12/01 12:29:37;;;;;;;;;;;;;;;;;;5039840;28;19913;-80
2021/12/01 12:32:03;;;;;;;;;;;;;;;;;;5033854;28;19963;-79
2021/12/01 12:34:29;;;;;;;;;;;;;;;;;;5048099;28;19912;-87
2021/12/01 12:36:56;;;;;;;;;;;;;;;;;;5043670;28;19921;-79
2021/12/01 12:39:23;;;;;;;;;;;;;;;;;;5034558;28;19974;-84
2021/12/01 12:41:49;;;;;;;;;;;;;;;;;;5038444;28;19919;-80
2021/12/01 12:44:15;;;;;;;;;;;;;;;;;;5025127;28;20270;-80
2021/12/01 12:46:41;;;;;;;;;;;;;;;;;;5035774;28;19928;-85
2021/12/01 12:49:07;;;;;;;;;;;;;;;;;;5034630;28;19931;-81
2021/12/01 12:51:33;;;;;;;;;;;;;;;;;;5038939;28;19927;-81
2021/12/01 12:53:59;;;;;;;;;;;;;;;;;;5040355;28;19928;-80
2021/12/01 12:56:25;;;;;;;;;;;;;;;;;;5034912;28;19913;-82
2021/12/01 12:58:51;;;;;;;;;;;;;;;;;;5032963;28;20014;-78
2021/12/01 13:01:17;;;;;;;;;;;;;;;;;;5032393;28;19913;-79
2021/12/01 13:03:43;;;;;;;;;;;;;;;;;;5033165;28;20366;-79
2021/12/01 13:06:09;;;;;;;;;;;;;;;;;;5038176;28;20012;-81
2021/12/01 13:08:35;;;;;;;;;;;;;;;;;;5038109;28;19935;-79
2021/12/01 13:11:00;;;;;;;;;;;;;;;;;;5046351;28;20003;-78
2021/12/01 13:13:27;;;;;;;;;;;;;;;;;;5039053;28;19964;-83
2021/12/01 13:15:53;;;;;;;;;;;;;;;;;;5043893;28;19916;-82
2021/12/01 13:18:20;;;;;;;;;;;;;;;;;;5038026;28;19920;-81
2021/12/01 13:20:46;;;;;;;;;;;;;;;;;;5039161;28;19948;-84
2021/12/01 13:23:14;;;;;;;;;;;;;;;;;;5036448;28;19927;-83
2021/12/01 13:25:43;;;;;;;;;;;;;;;;;;5039451;28;19928;-83
2021/12/01 13:28:12;;;;;;;;;;;;;;;;;;5036037;28;19939;-78
2021/12/01 13:30:53;;;;;;;;;;;;;;;;;;5041022;28;19913;-80
2021/12/01 13:33:19;;;;;;;;;;;;;;;;;;5034616;28;19909;-82
2021/12/01 13:35:45;;;;;;;;;;;;;;;;;;5042659;28;19935;-82
2021/12/01 13:38:11;;;;;;;;;;;;;;;;;;5033382;28;19910;-81
2021/12/01 13:40:37;;;;;;;;;;;;;;;;;;5037565;28;20008;-77
2021/12/01 13:43:03;;;;;;;;;;;;;;;;;;5040615;28;19909;-82
2021/12/01 13:45:28;;;;;;;;;;;;;;;;;;5024325;28;19917;-80
2021/12/01 13:47:54;;;;;;;;;;;;;;;;;;5017585;28;19928;-83
2021/12/01 13:50:29;;;;;;;;;;;;;;;;;;5030566;28;20435;-83
2021/12/01 13:52:55;;;;;;;;;;;;;;;;;;5020434;28;19912;-78
2021/12/01 13:55:25;;;;;;;;;;;;;;;;;;5020728;28;19912;-77
2021/12/01 13:57:51;;;;;;;;;;;;;;;;;;5019259;28;19927;-79
2021/12/01 14:00:17;;;;;;;;;;;;;;;;;;5018587;28;19966;-79
2021/12/01 14:02:43;;;;;;;;;;;;;;;;;;5015110;28;20908;-85
2021/12/01 14:05:09;;;;;;;;;;;;;;;;;;5010841;28;20349;-78
2021/12/01 14:07:35;;;;;;;;;;;;;;;;;;5017193;28;19920;-80
2021/12/01 14:10:01;;;;;;;;;;;;;;;;;;5024517;28;19918;-85
2021/12/01 14:12:28;;;;;;;;;;;;;;;;;;5003974;28;19914;-80
2021/12/01 14:14:54;;;;;;;;;;;;;;;;;;5012593;28;20396;-83
2021/12/01 14:17:20;;;;;;;;;;;;;;;;;;5028614;28;20009;-82
2021/12/01 14:19:46;;;;;;;;;;;;;;;;;;5035555;28;20066;-82
2021/12/01 14:22:12;;;;;;;;;;;;;;;;;;5026177;28;19920;-83
2021/12/01 14:24:38;;;;;;;;;;;;;;;;;;5034711;28;19913;-80
2021/12/01 14:27:04;;;;;;;;;;;;;;;;;;5033458;28;19921;-84
2021/12/01 14:29:37;;;;;;;;;;;;;;;;;;5029995;28;19983;-82
2021/12/01 14:32:03;;;;;;;;;;;;;;;;;;5032729;28;19914;-82
2021/12/01 14:34:31;;;;;;;;;;;;;;;;;;5035573;28;20024;-85
2021/12/01 14:36:57;;;;;;;;;;;;;;;;;;5039809;28;19908;-84
2021/12/01 14:39:23;;;;;;;;;;;;;;;;;;5040375;28;19917;-83
2021/12/01 14:41:49;;;;;;;;;;;;;;;;;;5038493;28;20537;-83
2021/12/01 14:44:15;;;;;;;;;;;;;;;;;;5021905;28;20014;-79
2021/12/01 14:46:41;;;;;;;;;;;;;;;;;;5020987;28;19921;-83
2021/12/01 14:49:08;;;;;;;;;;;;;;;;;;5029996;28;19909;-80
2021/12/01 14:57:03;;;;;;;;;;;;;;;;;;5042282;28;20606;-87
2021/12/01 14:59:29;;;;;;;;;;;;;;;;;;5033794;28;20003;-79
2021/12/01 15:01:54;;;;;;;;;;;;;;;;;;5034955;28;19916;-78
2021/12/01 15:04:20;;;;;;;;;;;;;;;;;;5028343;28;19923;-82
2021/12/01 15:06:46;;;;;;;;;;;;;;;;;;5029702;28;20349;-83
2021/12/01 15:09:12;;;;;;;;;;;;;;;;;;5037456;28;19928;-81
2021/12/01 15:11:43;;;;;;;;;;;;;;;;;;5039289;28;21171;-82
2021/12/01 15:14:09;;;;;;;;;;;;;;;;;;5044822;28;20361;-84
2021/12/01 15:16:35;;;;;;;;;;;;;;;;;;5030931;28;19958;-86
2021/12/01 15:19:01;;;;;;;;;;;;;;;;;;5038124;28;19948;-81
2021/12/01 15:24:24;;;;;;;;;;;;;;;;;;5038062;28;19979;-81
2021/12/01 15:26:50;;;;;;;;;;;;;;;;;;5038358;28;19983;-81
2021/12/01 15:29:16;;;;;;;;;;;;;;;;;;5040577;28;19909;-83
2021/12/01 15:31:42;;;;;;;;;;;;;;;;;;5036769;28;19920;-76
2021/12/01 15:34:09;;;;;;;;;;;;;;;;;;5043397;28;19931;-80
2021/12/01 15:36:34;;;;;;;;;;;;;;;;;;5041242;28;19913;-80
2021/12/01 15:39:02;;;;;;;;;;;;;;;;;;5039292;28;20543;-80
2021/12/01 15:41:27;;;;;;;;;;;;;;;;;;5041154;28;19909;-81
2021/12/01 15:43:53;;;;;;;;;;;;;;;;;;5042021;28;19921;-86
2021/12/01 15:46:19;;;;;;;;;;;;;;;;;;5039205;28;19917;-82
2021/12/01 15:48:45;;;;;;;;;;;;;;;;;;5043620;28;19932;-78
2021/12/01 15:51:11;;;;;;;;;;;;;;;;;;5045034;28;19955;-81
2021/12/01 15:53:37;;;;;;;;;;;;;;;;;;5017822;28;20415;-83
2021/12/01 15:56:03;;;;;;;;;;;;;;;;;;5035780;28;19915;-80
2021/12/01 15:58:29;;;;;;;;;;;;;;;;;;5045576;28;19957;-77
2021/12/01 16:00:55;;;;;;;;;;;;;;;;;;5037504;28;20414;-80
2021/12/01 16:03:20;;;;;;;;;;;;;;;;;;5037673;28;19921;-80
2021/12/01 16:05:46;;;;;;;;;;;;;;;;;;5016142;28;19925;-82
2021/12/01 16:08:12;;;;;;;;;;;;;;;;;;5012385;28;20381;-80
2021/12/01 16:10:47;;;;;;;;;;;;;;;;;;5023215;28;19913;-79
2021/12/01 16:13:13;;;;;;;;;;;;;;;;;;5020503;28;20015;-78
2021/12/01 16:15:39;;;;;;;;;;;;;;;;;;5019351;28;19965;-79
2021/12/01 16:18:05;;;;;;;;;;;;;;;;;;5015108;28;19917;-84
2021/12/01 16:20:31;;;;;;;;;;;;;;;;;;5021215;28;19913;-83
2021/12/01 16:22:57;;;;;;;;;;;;;;;;;;5014129;28;20373;-79
2021/12/01 16:25:23;;;;;;;;;;;;;;;;;;5015581;28;19921;-81
2021/12/01 16:27:50;;;;;;;;;;;;;;;;;;5035519;28;20008;-83
2021/12/01 16:30:17;;;;;;;;;;;;;;;;;;5021104;28;20043;-81
2021/12/01 16:32:49;;;;;;;;;;;;;;;;;;5013072;28;20005;-79
2021/12/01 16:35:15;;;;;;;;;;;;;;;;;;5015369;28;20704;-82
2021/12/01 16:37:40;;;;;;;;;;;;;;;;;;5016009;28;20023;-80
2021/12/01 16:40:06;;;;;;;;;;;;;;;;;;5015648;28;19952;-81
2021/12/01 16:42:32;;;;;;;;;;;;;;;;;;5018719;28;19921;-83
2021/12/01 16:44:59;;;;;;;;;;;;;;;;;;5013546;28;20494;-82
2021/12/01 16:47:25;;;;;;;;;;;;;;;;;;5008613;28;20198;-80
2021/12/01 16:49:51;;;;;;;;;;;;;;;;;;5016145;28;19921;-81
2021/12/01 16:52:17;;;;;;;;;;;;;;;;;;5006754;28;19918;-79
2021/12/01 16:54:43;;;;;;;;;;;;;;;;;;5019415;28;20000;-82
2021/12/01 16:57:09;;;;;;;;;;;;;;;;;;5014175;28;19921;-84
2021/12/01 16:59:35;;;;;;;;;;;;;;;;;;5013177;28;19938;-80
2021/12/01 17:02:01;;;;;;;;;;;;;;;;;;5013555;28;19918;-79